createdAt,value
2022-07-27T00:01:27.395Z,-68
2022-07-27T00:03:55.981Z,-67
2022-07-27T00:06:24.583Z,-67
2022-07-27T00:08:53.077Z,-68
2022-07-27T00:11:21.716Z,-68
2022-07-27T00:13:50.149Z,-68
2022-07-27T00:16:18.810Z,-69
2022-07-27T00:18:47.332Z,-69
2022-07-27T00:21:15.888Z,-69
2022-07-27T00:23:44.381Z,-67
2022-07-27T00:26:13.109Z,-67
2022-07-27T00:28:41.672Z,-67
2022-07-27T00:31:10.263Z,-66
2022-07-27T00:33:38.854Z,-67
2022-07-27T00:36:07.620Z,-68
2022-07-27T00:38:36.109Z,-68
2022-07-27T00:41:04.974Z,-68
2022-07-27T00:43:34.087Z,-68
2022-07-27T00:46:04.692Z,-68
2022-07-27T00:48:33.596Z,-68
2022-07-27T00:51:02.314Z,-67
2022-07-27T00:53:31.302Z,-68
2022-07-27T00:56:00.322Z,-67
2022-07-27T00:58:29.186Z,-69
2022-07-27T01:00:57.678Z,-67
2022-07-27T01:03:29.710Z,-68
2022-07-27T01:05:59.214Z,-67
2022-07-27T01:08:29.593Z,-66
2022-07-27T01:10:58.962Z,-67
2022-07-27T01:13:28.219Z,-67
2022-07-27T01:15:57.064Z,-67
2022-07-27T01:18:32.592Z,-67
2022-07-27T01:21:04.086Z,-67
2022-07-27T01:23:33.773Z,-68
2022-07-27T01:26:03.201Z,-66
2022-07-27T01:28:32.080Z,-67
2022-07-27T01:31:00.742Z,-67
2022-07-27T01:33:29.362Z,-67
2022-07-27T01:35:58.750Z,-68
2022-07-27T01:38:27.583Z,-68
2022-07-27T01:40:56.522Z,-68
2022-07-27T01:43:25.474Z,-67
2022-07-27T01:45:53.958Z,-67
2022-07-27T01:48:22.747Z,-67
2022-07-27T01:50:52.079Z,-68
2022-07-27T01:53:22.309Z,-68
2022-07-27T01:55:51.192Z,-68
2022-07-27T01:58:20.011Z,-67
2022-07-27T02:00:50.633Z,-67
2022-07-27T02:03:19.339Z,-69
2022-07-27T02:05:48.109Z,-67
2022-07-27T02:08:16.667Z,-67
2022-07-27T02:10:59.021Z,-68
2022-07-27T02:13:28.352Z,-68
2022-07-27T02:15:57.334Z,-68
2022-07-27T02:18:33.526Z,-66
2022-07-27T02:21:08.710Z,-67
2022-07-27T02:23:37.933Z,-68
2022-07-27T02:26:08.545Z,-67
2022-07-27T02:28:37.452Z,-68
2022-07-27T02:31:06.156Z,-68
2022-07-27T02:33:34.692Z,-69
2022-07-27T02:36:03.620Z,-68
2022-07-27T02:38:32.195Z,-70
2022-07-27T02:41:00.660Z,-69
2022-07-27T02:43:29.576Z,-71
2022-07-27T02:45:58.158Z,-68
2022-07-27T02:48:26.695Z,-67
2022-07-27T02:50:55.122Z,-69
2022-07-27T02:53:23.551Z,-69
2022-07-27T02:55:51.974Z,-68
2022-07-27T02:58:21.260Z,-68
2022-07-27T03:00:52.636Z,-68
2022-07-27T03:03:34.502Z,-69
2022-07-27T03:06:07.383Z,-67
2022-07-27T03:08:36.793Z,-68
2022-07-27T03:11:05.721Z,-68
2022-07-27T03:13:34.456Z,-68
2022-07-27T03:16:02.954Z,-69
2022-07-27T03:18:32.133Z,-69
2022-07-27T03:21:00.558Z,-69
2022-07-27T03:23:29.139Z,-68
2022-07-27T03:25:57.755Z,-69
2022-07-27T03:28:26.310Z,-68
2022-07-27T03:30:54.778Z,-68
2022-07-27T03:33:23.370Z,-69
2022-07-27T03:35:51.984Z,-68
2022-07-27T03:38:20.907Z,-68
2022-07-27T03:40:49.397Z,-69
2022-07-27T03:43:17.817Z,-68
2022-07-27T03:45:46.380Z,-68
2022-07-27T03:48:14.906Z,-68
2022-07-27T03:50:43.356Z,-68
2022-07-27T03:53:12.092Z,-69
2022-07-27T03:55:40.514Z,-69
2022-07-27T03:58:09.095Z,-69
2022-07-27T04:00:37.565Z,-70
2022-07-27T04:03:06.084Z,-70
2022-07-27T04:05:34.534Z,-70
2022-07-27T04:08:02.929Z,-70
2022-07-27T04:10:31.733Z,-70
2022-07-27T04:13:00.462Z,-70
2022-07-27T04:15:29.775Z,-70
2022-07-27T04:17:58.499Z,-71
2022-07-27T04:20:27.762Z,-70
2022-07-27T04:22:56.548Z,-71
2022-07-27T04:25:25.148Z,-70
2022-07-27T04:27:55.378Z,-69
2022-07-27T04:30:24.499Z,-70
2022-07-27T04:32:53.318Z,-70
2022-07-27T04:35:26.352Z,-69
2022-07-27T04:37:58.835Z,-71
2022-07-27T04:40:31.262Z,-70
2022-07-27T04:43:00.145Z,-70
2022-07-27T04:45:28.917Z,-70
2022-07-27T04:47:57.438Z,-69
2022-07-27T04:50:25.922Z,-69
2022-07-27T04:52:54.423Z,-69
2022-07-27T04:55:22.911Z,-70
2022-07-27T04:57:51.503Z,-70
2022-07-27T05:00:20.201Z,-70
2022-07-27T05:02:48.740Z,-69
2022-07-27T05:05:17.306Z,-70
2022-07-27T05:07:45.714Z,-70
2022-07-27T05:10:19.501Z,-70
2022-07-27T05:12:50.081Z,-70
2022-07-27T05:15:19.209Z,-70
2022-07-27T05:17:47.622Z,-70
2022-07-27T05:20:16.484Z,-70
2022-07-27T05:22:44.996Z,-70
2022-07-27T05:25:13.500Z,-70
2022-07-27T05:27:54.762Z,-71
2022-07-27T05:30:31.632Z,-69
2022-07-27T05:33:02.173Z,-70
2022-07-27T05:35:30.273Z,-70
2022-07-27T05:37:58.686Z,-70
2022-07-27T05:40:27.602Z,-70
2022-07-27T05:42:56.081Z,-70
2022-07-27T05:45:24.501Z,-70
2022-07-27T05:47:54.461Z,-70
2022-07-27T05:50:23.449Z,-70
2022-07-27T05:52:51.912Z,-71
2022-07-27T05:55:20.420Z,-70
2022-07-27T05:57:48.859Z,-70
2022-07-27T06:00:17.416Z,-70
2022-07-27T06:02:45.849Z,-70
2022-07-27T06:05:17.227Z,-70
2022-07-27T06:08:00.848Z,-69
2022-07-27T06:10:34.542Z,-70
2022-07-27T06:13:05.928Z,-69
2022-07-27T06:15:34.874Z,-70
2022-07-27T06:18:03.867Z,-70
2022-07-27T06:20:32.554Z,-70
2022-07-27T06:23:07.489Z,-69
2022-07-27T06:25:36.973Z,-69
2022-07-27T06:28:06.822Z,-69
2022-07-27T06:30:35.363Z,-69
2022-07-27T06:33:06.212Z,-69
2022-07-27T06:35:39.014Z,-70
2022-07-27T06:38:07.949Z,-69
2022-07-27T06:40:36.926Z,-70
2022-07-27T06:43:05.662Z,-70
2022-07-27T06:45:34.122Z,-70
2022-07-27T06:48:02.775Z,-70
2022-07-27T06:50:31.669Z,-70
2022-07-27T06:53:00.055Z,-69
2022-07-27T06:55:28.629Z,-69
2022-07-27T06:57:57.091Z,-69
2022-07-27T07:00:25.563Z,-69
2022-07-27T07:03:05.578Z,-69
2022-07-27T07:05:38.537Z,-70
2022-07-27T07:08:11.406Z,-69
2022-07-27T07:10:43.640Z,-70
2022-07-27T07:13:12.642Z,-69
2022-07-27T07:15:43.311Z,-70
2022-07-27T07:18:13.016Z,-69
2022-07-27T07:20:42.359Z,-69
2022-07-27T07:23:11.104Z,-69
2022-07-27T07:25:40.082Z,-69
2022-07-27T07:28:09.030Z,-69
2022-07-27T07:30:38.001Z,-70
2022-07-27T07:33:06.961Z,-69
2022-07-27T07:35:35.486Z,-69
2022-07-27T07:38:03.952Z,-69
2022-07-27T07:40:43.113Z,-69
2022-07-27T07:43:14.479Z,-69
2022-07-27T07:45:51.650Z,-71
2022-07-27T07:48:24.574Z,-69
2022-07-27T07:50:53.947Z,-69
2022-07-27T07:53:23.913Z,-70
2022-07-27T07:55:56.238Z,-69
2022-07-27T07:58:24.949Z,-69
2022-07-27T08:00:53.392Z,-69
2022-07-27T08:03:22.505Z,-70
2022-07-27T08:05:51.090Z,-69
2022-07-27T08:08:19.546Z,-69
2022-07-27T08:10:48.096Z,-69
2022-07-27T08:13:21.861Z,-69
2022-07-27T08:15:52.373Z,-69
2022-07-27T08:18:21.453Z,-69
2022-07-27T08:20:49.895Z,-69
2022-07-27T08:23:18.546Z,-69
2022-07-27T08:25:47.674Z,-69
2022-07-27T08:28:16.288Z,-69
2022-07-27T08:30:44.786Z,-69
2022-07-27T08:33:13.502Z,-69
2022-07-27T08:35:42.036Z,-70
2022-07-27T08:38:10.874Z,-70
2022-07-27T08:40:43.546Z,-69
2022-07-27T08:43:21.925Z,-70
2022-07-27T08:46:00.995Z,-69
2022-07-27T08:48:31.762Z,-70
2022-07-27T08:51:00.347Z,-69
2022-07-27T08:53:41.943Z,-70
2022-07-27T08:56:17.302Z,-70
2022-07-27T08:58:46.828Z,-70
2022-07-27T09:01:15.458Z,-70
2022-07-27T09:03:43.965Z,-70
2022-07-27T09:06:12.470Z,-70
2022-07-27T09:08:41.975Z,-70
2022-07-27T09:11:17.050Z,-70
2022-07-27T09:13:45.501Z,-71
2022-07-27T09:16:19.181Z,-71
2022-07-27T09:18:49.986Z,-69
2022-07-27T09:21:24.587Z,-69
2022-07-27T09:24:00.544Z,-70
2022-07-27T09:26:33.226Z,-70
2022-07-27T09:29:05.976Z,-70
2022-07-27T09:31:45.313Z,-70
2022-07-27T09:34:16.061Z,-70
2022-07-27T09:36:59.157Z,-70
2022-07-27T09:39:29.381Z,-70
2022-07-27T09:42:01.410Z,-70
2022-07-27T09:44:45.020Z,-69
2022-07-27T09:47:26.757Z,-69
2022-07-27T09:50:00.109Z,-69
2022-07-27T09:52:32.331Z,-69
2022-07-27T09:55:07.808Z,-69
2022-07-27T09:57:56.460Z,-69
2022-07-27T10:00:25.930Z,-69
2022-07-27T10:02:56.324Z,-69
2022-07-27T10:05:25.092Z,-68
2022-07-27T10:07:55.816Z,-69
2022-07-27T10:10:25.374Z,-85
2022-07-27T11:01:32.501Z,-84
2022-07-27T11:04:11.055Z,-85
2022-07-27T11:07:22.598Z,-84
2022-07-27T11:12:31.489Z,-84
2022-07-27T11:15:02.223Z,-84
2022-07-27T11:17:54.191Z,-84
2022-07-27T11:20:26.776Z,-83
2022-07-27T11:23:50.082Z,-84
2022-07-27T11:26:01.582Z,-81
2022-07-27T11:28:36.305Z,-84
2022-07-27T11:31:05.832Z,-83
2022-07-27T11:33:34.475Z,-83
2022-07-27T11:36:07.820Z,-83
2022-07-27T11:38:55.822Z,-84
2022-07-27T11:44:19.096Z,-83
2022-07-27T11:46:49.404Z,-83
2022-07-27T11:49:28.640Z,-83
2022-07-27T11:52:02.978Z,-83
2022-07-27T11:54:34.886Z,-83
2022-07-27T11:57:12.438Z,-82
2022-07-27T11:59:43.374Z,-83
2022-07-27T12:02:19.807Z,-83
2022-07-27T12:04:51.645Z,-83
2022-07-27T12:07:29.659Z,-83
2022-07-27T12:10:02.122Z,-84
2022-07-27T12:12:38.572Z,-83
2022-07-27T12:15:44.361Z,-85
2022-07-27T12:18:09.805Z,-82
2022-07-27T12:20:38.314Z,-83
2022-07-27T12:23:10.289Z,-84
2022-07-27T12:25:39.772Z,-84
2022-07-27T12:28:12.971Z,-83
2022-07-27T12:30:45.015Z,-83
2022-07-27T12:33:38.052Z,-84
2022-07-27T12:36:09.415Z,-84
2022-07-27T12:38:50.335Z,-84
2022-07-27T12:41:27.795Z,-84
2022-07-27T12:44:12.157Z,-83
2022-07-27T12:47:02.008Z,-83
2022-07-27T12:49:34.755Z,-83
2022-07-27T12:52:10.683Z,-83
2022-07-27T12:54:39.501Z,-83
2022-07-27T12:57:08.722Z,-82
2022-07-27T12:59:37.088Z,-83
2022-07-27T13:02:05.751Z,-83
2022-07-27T13:08:41.721Z,-83
2022-07-27T13:11:10.270Z,-84
2022-07-27T13:13:45.006Z,-83
2022-07-27T13:16:13.490Z,-83
2022-07-27T13:18:42.227Z,-83
2022-07-27T13:21:10.797Z,-83
2022-07-27T13:23:39.264Z,-84
2022-07-27T13:26:07.783Z,-83
2022-07-27T13:28:36.555Z,-84
2022-07-27T13:31:10.735Z,-84
2022-07-27T13:33:39.238Z,-84
2022-07-27T13:36:09.780Z,-84
2022-07-27T13:38:38.316Z,-84
2022-07-27T13:41:07.365Z,-84
2022-07-27T13:43:35.828Z,-83
2022-07-27T13:46:04.294Z,-83
2022-07-27T13:48:33.002Z,-83
2022-07-27T13:51:01.545Z,-84
2022-07-27T13:53:30.254Z,-85
2022-07-27T13:56:00.258Z,-84
2022-07-27T13:58:28.817Z,-84
2022-07-27T14:00:57.611Z,-83
2022-07-27T14:03:26.047Z,-84
2022-07-27T14:05:56.178Z,-84
2022-07-27T14:08:25.465Z,-83
2022-07-27T14:10:54.883Z,-85
2022-07-27T14:13:24.856Z,-84
2022-07-27T14:15:55.350Z,-84
2022-07-27T14:18:29.569Z,-84
2022-07-27T14:21:09.214Z,-84
2022-07-27T14:23:38.799Z,-84
2022-07-27T14:26:08.786Z,-84
2022-07-27T14:28:38.928Z,-84
2022-07-27T14:31:10.364Z,-83
2022-07-27T14:33:41.715Z,-84
2022-07-27T14:36:10.781Z,-84
2022-07-27T14:38:39.424Z,-83
2022-07-27T14:41:08.059Z,-83
2022-07-27T14:43:37.186Z,-84
2022-07-27T14:46:05.712Z,-84
2022-07-27T14:49:04.601Z,-84
2022-07-27T14:51:22.838Z,-83
2022-07-27T14:53:51.747Z,-84
2022-07-27T14:56:21.607Z,-84
2022-07-27T14:58:50.165Z,-83
2022-07-27T15:01:18.637Z,-83
2022-07-27T15:03:47.263Z,-82
2022-07-27T15:06:15.841Z,-84
2022-07-27T15:08:47.160Z,-83
2022-07-27T15:11:16.056Z,-85
2022-07-27T15:13:44.506Z,-84
2022-07-27T15:16:13.211Z,-85
2022-07-27T15:18:41.842Z,-85
2022-07-27T15:21:13.284Z,-84
2022-07-27T15:23:45.283Z,-84
2022-07-27T15:26:14.239Z,-84
2022-07-27T15:28:43.835Z,-84
2022-07-27T15:31:13.673Z,-83
2022-07-27T15:33:42.400Z,-85
2022-07-27T15:36:31.354Z,-85
2022-07-27T15:39:00.273Z,-84
2022-07-27T15:41:28.803Z,-85
2022-07-27T15:43:59.481Z,-84
2022-07-27T15:46:28.238Z,-83
2022-07-27T15:48:57.058Z,-85
2022-07-27T15:51:26.276Z,-84
2022-07-27T15:53:55.908Z,-84
2022-07-27T15:56:25.855Z,-84
2022-07-27T15:58:54.274Z,-85
2022-07-27T16:01:22.918Z,-84
2022-07-27T16:04:08.108Z,-84
2022-07-27T16:06:39.372Z,-86
2022-07-27T16:09:09.339Z,-70
2022-07-27T16:11:39.203Z,-71
2022-07-27T16:14:07.588Z,-70
2022-07-27T16:16:36.205Z,-70
2022-07-27T16:19:13.167Z,-70
2022-07-27T16:21:54.210Z,-71
2022-07-27T16:24:25.864Z,-70
2022-07-27T16:26:54.867Z,-68
2022-07-27T16:29:23.782Z,-68
2022-07-27T16:31:54.876Z,-68
2022-07-27T16:34:23.582Z,-68
2022-07-27T16:36:52.257Z,-68
2022-07-27T16:39:21.214Z,-69
2022-07-27T16:41:50.506Z,-70
2022-07-27T16:44:21.191Z,-70
2022-07-27T16:46:51.048Z,-70
2022-07-27T16:49:19.357Z,-70
2022-07-27T16:51:48.813Z,-70
2022-07-27T16:54:17.432Z,-70
2022-07-27T16:56:45.873Z,-70
2022-07-27T16:59:14.814Z,-70
2022-07-27T17:01:43.808Z,-70
2022-07-27T17:04:12.283Z,-70
2022-07-27T17:06:40.442Z,-70
2022-07-27T17:09:09.113Z,-70
2022-07-27T17:11:37.660Z,-70
2022-07-27T17:14:08.114Z,-70
2022-07-27T17:16:36.687Z,-70
2022-07-27T17:19:05.225Z,-70
2022-07-27T17:21:33.733Z,-70
2022-07-27T17:24:02.239Z,-71
2022-07-27T17:26:31.479Z,-70
2022-07-27T17:29:00.102Z,-71
2022-07-27T17:31:28.842Z,-70
2022-07-27T17:33:57.515Z,-71
2022-07-27T17:36:26.959Z,-70
2022-07-27T17:38:55.410Z,-70
2022-07-27T17:41:25.284Z,-70
2022-07-27T17:43:55.743Z,-70
2022-07-27T17:46:25.201Z,-70
2022-07-27T17:48:55.289Z,-70
2022-07-27T17:51:25.334Z,-70
2022-07-27T17:53:54.265Z,-71
2022-07-27T17:56:22.838Z,-70
2022-07-27T17:58:51.573Z,-70
2022-07-27T18:01:46.337Z,-70
2022-07-27T18:04:09.289Z,-70
2022-07-27T18:06:37.880Z,-70
2022-07-27T18:09:08.653Z,-70
2022-07-27T18:11:37.442Z,-70
2022-07-27T18:14:06.080Z,-70
2022-07-27T18:16:39.987Z,-70
2022-07-27T18:19:10.232Z,-70
2022-07-27T18:21:38.924Z,-71
2022-07-27T18:24:07.694Z,-71
2022-07-27T18:26:38.978Z,-70
2022-07-27T18:29:07.879Z,-70
2022-07-27T18:31:36.516Z,-70
2022-07-27T18:34:09.319Z,-70
2022-07-27T18:36:42.530Z,-70
2022-07-27T18:39:11.830Z,-70
2022-07-27T18:41:40.882Z,-71
2022-07-27T18:44:09.792Z,-70
2022-07-27T18:46:38.377Z,-70
2022-07-27T18:49:07.954Z,-70
2022-07-27T18:51:38.523Z,-71
2022-07-27T18:54:07.012Z,-70
2022-07-27T18:56:35.643Z,-70
2022-07-27T18:59:04.309Z,-71
2022-07-27T19:01:33.021Z,-70
2022-07-27T19:04:02.753Z,-70
2022-07-27T19:06:31.723Z,-70
2022-07-27T19:09:00.199Z,-70
2022-07-27T19:11:28.654Z,-70
2022-07-27T19:13:58.046Z,-70
2022-07-27T19:16:27.128Z,-70
2022-07-27T19:18:55.671Z,-70
2022-07-27T19:21:24.488Z,-70
2022-07-27T19:23:52.965Z,-70
2022-07-27T19:26:21.543Z,-70
2022-07-27T19:28:50.449Z,-70
2022-07-27T19:31:24.412Z,-70
2022-07-27T19:33:53.877Z,-70
2022-07-27T19:36:23.388Z,-70
2022-07-27T19:38:52.441Z,-70
2022-07-27T19:41:20.919Z,-70
2022-07-27T19:43:49.715Z,-70
2022-07-27T19:46:18.183Z,-70
2022-07-27T19:48:48.261Z,-70
2022-07-27T19:51:16.810Z,-70
2022-07-27T19:53:45.276Z,-70
2022-07-27T19:56:13.753Z,-70
2022-07-27T19:58:42.481Z,-70
2022-07-27T20:01:11.633Z,-70
2022-07-27T20:03:52.588Z,-70
2022-07-27T20:06:27.178Z,-70
2022-07-27T20:08:59.772Z,-70
2022-07-27T20:11:30.684Z,-70
2022-07-27T20:14:01.845Z,-70
2022-07-27T20:16:34.050Z,-70
2022-07-27T20:19:02.635Z,-70
2022-07-27T20:21:32.094Z,-70
2022-07-27T20:24:02.021Z,-71
2022-07-27T20:26:31.777Z,-70
2022-07-27T20:29:00.491Z,-70
2022-07-27T20:31:29.621Z,-70
2022-07-27T20:33:58.100Z,-72
2022-07-27T20:36:26.942Z,-70
2022-07-27T20:38:55.503Z,-73
2022-07-27T20:41:24.075Z,-71
2022-07-27T20:43:52.797Z,-69
2022-07-27T20:46:21.423Z,-71
2022-07-27T20:48:49.961Z,-70
2022-07-27T20:51:18.493Z,-69
2022-07-27T20:53:47.532Z,-70
2022-07-27T20:56:15.949Z,-70
2022-07-27T20:58:44.457Z,-70
2022-07-27T21:01:13.104Z,-69
2022-07-27T21:03:41.617Z,-69
2022-07-27T21:06:10.076Z,-69
2022-07-27T21:08:42.823Z,-69
2022-07-27T21:11:14.659Z,-69
2022-07-27T21:13:42.794Z,-69
2022-07-27T21:16:11.303Z,-69
2022-07-27T21:18:39.760Z,-69
2022-07-27T21:21:08.219Z,-69
2022-07-27T21:23:54.014Z,-70
2022-07-27T21:26:22.215Z,-70
2022-07-27T21:28:51.757Z,-70
2022-07-27T21:31:21.678Z,-70
2022-07-27T21:33:49.945Z,-70
2022-07-27T21:36:18.455Z,-70
2022-07-27T21:38:47.295Z,-70
2022-07-27T21:41:16.110Z,-70
2022-07-27T21:43:44.610Z,-70
2022-07-27T21:46:13.193Z,-70
2022-07-27T21:48:41.906Z,-70
2022-07-27T21:51:10.598Z,-70
2022-07-27T21:53:39.166Z,-70
2022-07-27T21:56:07.770Z,-70
2022-07-27T21:58:36.210Z,-70
2022-07-27T22:01:04.684Z,-70
2022-07-27T22:03:33.156Z,-70
2022-07-27T22:06:06.703Z,-70
2022-07-27T22:08:35.629Z,-70
2022-07-27T22:11:04.569Z,-71
2022-07-27T22:13:33.804Z,-69
2022-07-27T22:16:02.564Z,-70
2022-07-27T22:18:31.291Z,-68
2022-07-27T22:20:59.750Z,-72
2022-07-27T22:23:28.207Z,-71
2022-07-27T22:25:58.031Z,-70
2022-07-27T22:28:26.615Z,-70
2022-07-27T22:31:20.695Z,-70
2022-07-27T22:33:44.417Z,-70
2022-07-27T22:36:13.282Z,-71
2022-07-27T22:38:42.355Z,-71
2022-07-27T22:41:10.959Z,-71
2022-07-27T22:43:39.791Z,-69
2022-07-27T22:46:08.692Z,-71
2022-07-27T22:48:37.245Z,-70
2022-07-27T22:51:05.953Z,-70
2022-07-27T22:53:34.419Z,-70
2022-07-27T22:56:02.843Z,-70
2022-07-27T22:58:31.282Z,-71
2022-07-27T23:01:00.197Z,-69
2022-07-27T23:03:28.785Z,-70
2022-07-27T23:05:57.381Z,-70
2022-07-27T23:08:25.804Z,-71
2022-07-27T23:10:54.410Z,-70
2022-07-27T23:13:23.851Z,-71
2022-07-27T23:15:52.724Z,-69
2022-07-27T23:18:22.391Z,-71
2022-07-27T23:20:50.879Z,-71
2022-07-27T23:23:19.383Z,-71
2022-07-27T23:25:50.366Z,-70
2022-07-27T23:28:18.986Z,-69
2022-07-27T23:30:47.467Z,-68
2022-07-27T23:33:15.949Z,-69
2022-07-27T23:35:44.458Z,-69
2022-07-27T23:38:12.921Z,-70
2022-07-27T23:40:41.327Z,-68
2022-07-27T23:43:09.849Z,-71
2022-07-27T23:45:38.362Z,-70
2022-07-27T23:48:06.669Z,-71
2022-07-27T23:50:35.240Z,-70
2022-07-27T23:53:03.737Z,-68
2022-07-27T23:55:34.608Z,-69
2022-07-27T23:58:03.317Z,-69
